Isle of Tiree, United Kingdom
Current Conditions -  °F | °C
As of 9:50 AM on Tuesday 21 Oct 2014 (Local Time) from EGPU Reporting Station
Rain Showers Rain Showers  
Wind Chill: 36°   Ceiling: Unl
Heat Index: 46°   Visibility: 6mi
Dew Point: 39°   Wind: 39mph
Humidity: 76%   Direction: 320°NW
Pressure: 29.44"   Gusts: 52mph
Location:  56.51°N, 6.81°W
Report Text: EGPU 210850Z 32034G45KT 9999 VCSH FEW027CB SCT045 08/04 Q0997
Loading
Personal Weather Stations






























Interactive Weather Map
Tropical Storm Tracking
New forecast layout! Learn more

10-Day Weather Forecast

Advertisements
Track Severe Weather on mobile